Погода Билтинна 2 недели

Майо-Кеби, Чад

18 - 31 мая
  • 18мая
    Сегодня
    +28°
    +43°
    Ясно и безоблачно
    ВремяПогодаТемператураВлажностьДавлениеВетер, м/сВероятность осадков
    01:00Ясно и безоблачно+28°C13 %715 мм5.5 м/с2 %
    04:00Ясно и безоблачно+26°C15 %715 мм5.2 м/с2 %
    07:00Ясно и безоблачно+30°C13 %717 мм4.7 м/с2 %
    10:00Ясно и безоблачно+38°C7 %717 мм5.6 м/с2 %
    13:00Ясно и безоблачно+42°C6 %715 мм1.0 м/с2 %
    16:00Ясно и безоблачно+42°C8 %713 мм2.9 м/с2 %
    19:00Ясно и безоблачно+35°C12 %714 мм2.3 м/с2 %
    22:00Ясно и безоблачно+31°C13 %715 мм2.7 м/с2 %
  • 19мая
    Воскресенье
    +27°
    +44°
    Ясно и безоблачно
    ВремяПогодаТемператураВлажностьДавлениеВетер, м/сВероятность осадков
    01:00Ясно и безоблачно+29°C10 %714 мм4.3 м/с2 %
    04:00Ясно и безоблачно+29°C11 %714 мм5.2 м/с2 %
    07:00Ясно и безоблачно+33°C8 %716 мм5.2 м/с2 %
    10:00Ясно и безоблачно+42°C6 %716 мм4.5 м/с2 %
    13:00Ясно и безоблачно+44°C5 %714 мм1.9 м/с2 %
    16:00Ясно и безоблачно+43°C6 %713 мм4.8 м/с2 %
    19:00Ясно и безоблачно+36°C9 %713 мм2.4 м/с2 %
    22:00Ясно и безоблачно+32°C11 %714 мм2.4 м/с2 %
  • 20мая
    Понедельник
    +26°
    +45°
    Ясно и безоблачно
    ВремяПогодаТемператураВлажностьДавлениеВетер, м/сВероятность осадков
    01:00Ясно и безоблачно+29°C12 %714 мм1.9 м/с2 %
    04:00Ясно и безоблачно+27°C13 %714 мм3.3 м/с2 %
    07:00Ясно и безоблачно+32°C10 %716 мм3.6 м/с2 %
    10:00Ясно и безоблачно+42°C8 %717 мм4.0 м/с2 %
    13:00Ясно и безоблачно+44°C5 %715 мм3.1 м/с2 %
    16:00Ясно и безоблачно+43°C5 %713 мм5.1 м/с2 %
    19:00Ясно и безоблачно+36°C7 %713 мм2.8 м/с2 %
    22:00Ясно и безоблачно+31°C9 %714 мм2.9 м/с2 %
  • 21мая
    Вторник
    +30°
    +46°
    Ясно и безоблачно
    ВремяПогодаТемператураВлажностьДавлениеВетер, м/сВероятность осадков
    01:00Ясно и безоблачно+29°C10 %714 мм2.1 м/с2 %
    04:00Ясно и безоблачно+27°C13 %714 мм1.5 м/с2 %
    07:00Ясно и безоблачно+33°C10 %716 мм3.5 м/с2 %
    10:00Ясно и безоблачно+40°C7 %717 мм0.7 м/с2 %
    13:00Ясно и безоблачно+45°C5 %715 мм3.3 м/с2 %
    16:00Ясно и безоблачно+44°C5 %713 мм5.4 м/с2 %
    19:00Ясно и безоблачно+38°C7 %713 мм4.5 м/с2 %
    22:00Ясно и безоблачно+33°C9 %714 мм3.5 м/с2 %
  • 22мая
    Среда
    +31°
    +46°
    Ясно и безоблачно
    ВремяПогодаТемператураВлажностьДавлениеВетер, м/сВероятность осадков
    01:00Ясно и безоблачно+32°C10 %714 мм4.7 м/с2 %
    04:00Ясно и безоблачно+31°C11 %714 мм5.0 м/с2 %
    07:00Ясно и безоблачно+34°C9 %716 мм5.2 м/с2 %
    10:00Ясно и безоблачно+42°C5 %716 мм7.1 м/с2 %
    13:00Ясно и безоблачно+45°C5 %714 мм4.1 м/с2 %
    16:00Ясно и безоблачно+44°C4 %713 мм3.6 м/с2 %
    19:00Ясно и безоблачно+38°C6 %713 мм3.9 м/с2 %
    22:00Ясно и безоблачно+34°C7 %714 мм5.9 м/с2 %
Мы используем cookies
Соглашаюсь